Aérodrome :
LOGIN :

S'inscrire | Disclaimer

   EN    FR    IT 

 










Légende :    VFR   VFR Marginal   IFR   IFR Intensif   IFR Très Intensif
Visi : 
Plafond : 
>= 8 km
>= 3000ft
5 à 8 km
1000 à 3000 ft
1500m à 5 km
500 à 1000 ft
800 à 1500m
200 à 500 ft
< 800m
< 200 ft
Symboles :   Orages  Brouillard  Fortes neiges  Fortes précipitations  Vent > 20 kt
SIGMETs :   Divers  Orages  Givrage  Turbulence  Onde Orograph.  Cendres Volcan.







- Altitude de l'aérodrome : 101 ft
- Code IATA : GLO
- Voir les cartes d'approche


EGBJ - Gloucestershire

DERNIER METAR :
  • 201550Z 16002KT CAVOK 23/09 Q1019

METARs EXPIRÉS :
  • 201520Z 11002KT CAVOK 23/07 Q1019
  • 201450Z 17003KT CAVOK 23/09 Q1019
  • 201420Z 15004KT 130V220 CAVOK 23/08 Q1020
  • 201350Z 17005KT 130V250 CAVOK 23/09 Q1020
  • 201320Z 15002KT 9999 FEW048 23/08 Q1020
  • 201250Z 12003KT 9999 FEW048 23/09 Q1020

TAF TAF EGBJ
Valide du 20 à 15h jusqu'au 20 à 19h UTC


201403Z 2015/2019 VRB05KT 9999 FEW030
Pas de NOTAMs connus pour ce terrain.



MET'MAP, la Météo Aéronautique d'un coup d'oeil ! - Copyright ORBIFLY Décembre 2007 - Disclaimer

ORBIFLY MET'MAP TEAM :

Programmation & Développement : Alexandra Zaïnal
Conception & Développement : Baudouin d'Aumeries
Co-Programmation & Développement : Marc-Olivier Méhu
Soutien technique & logistique : Manuel Goepfert

Contact : metmap@orbifly.com




SOURCES & CREDITS :

   NOAA